createdAt,value
2018-04-13T00:00:59.386Z,14.50
2018-04-13T00:03:27.617Z,14.50
2018-04-13T00:05:55.097Z,14.50
2018-04-13T00:08:22.588Z,14.40
2018-04-13T00:10:50.066Z,14.30
2018-04-13T00:13:17.554Z,14.10
2018-04-13T00:15:45.026Z,14.10
2018-04-13T00:18:12.542Z,14.10
2018-04-13T00:20:40.018Z,14.20
2018-04-13T00:23:07.501Z,14.10
2018-04-13T00:25:34.969Z,14.20
2018-04-13T00:28:03.210Z,14.30
2018-04-13T00:30:31.457Z,14.30
2018-04-13T00:32:58.943Z,14.30
2018-04-13T00:35:26.412Z,14.30
2018-04-13T00:37:54.663Z,14.20
2018-04-13T00:40:22.125Z,14.10
2018-04-13T00:42:49.629Z,14.00
2018-04-13T00:45:17.111Z,14.10
2018-04-13T00:47:45.355Z,14.20
2018-04-13T00:50:12.833Z,14.20
2018-04-13T00:52:41.093Z,14.10
2018-04-13T00:55:08.563Z,14.10
2018-04-13T00:57:36.809Z,14.20
2018-04-13T01:00:04.281Z,14.20
2018-04-13T01:02:31.768Z,14.20
2018-04-13T01:05:00.003Z,13.90
2018-04-13T01:07:27.490Z,13.90
2018-04-13T01:09:54.958Z,13.90
2018-04-13T01:12:23.202Z,14.00
2018-04-13T01:14:50.682Z,14.00
2018-04-13T01:17:18.155Z,14.00
2018-04-13T01:19:46.393Z,14.00
2018-04-13T01:22:13.861Z,14.00
2018-04-13T01:24:41.334Z,14.00
2018-04-13T01:27:09.613Z,14.00
2018-04-13T01:29:37.845Z,14.00
2018-04-13T01:32:05.329Z,14.00
2018-04-13T01:34:32.808Z,14.00
2018-04-13T01:37:00.288Z,13.90
2018-04-13T01:39:27.770Z,13.80
2018-04-13T01:41:55.250Z,13.70
2018-04-13T01:44:22.726Z,13.70
2018-04-13T01:46:50.203Z,13.70
2018-04-13T01:49:18.447Z,13.30
2018-04-13T01:51:45.913Z,13.30
2018-04-13T01:54:13.421Z,13.20
2018-04-13T01:56:40.891Z,13.10
2018-04-13T01:59:08.366Z,13.00
2018-04-13T02:01:35.847Z,13.00
2018-04-13T02:04:03.330Z,13.00
2018-04-13T02:06:31.585Z,13.10
2018-04-13T02:08:59.062Z,13.10
2018-04-13T02:11:26.522Z,13.20
2018-04-13T02:13:54.007Z,13.10
2018-04-13T02:16:21.482Z,13.00
2018-04-13T02:18:48.965Z,13.00
2018-04-13T02:21:16.446Z,13.00
2018-04-13T02:23:43.923Z,13.10
2018-04-13T02:26:12.156Z,13.10
2018-04-13T02:28:39.645Z,13.10
2018-04-13T02:31:07.113Z,13.10
2018-04-13T02:33:35.361Z,13.00
2018-04-13T02:36:02.833Z,13.00
2018-04-13T02:38:30.310Z,13.00
2018-04-13T02:40:58.555Z,12.80
2018-04-13T02:43:26.037Z,12.80
2018-04-13T02:45:53.507Z,12.80
2018-04-13T02:48:21.746Z,12.90
2018-04-13T02:50:49.216Z,12.90
2018-04-13T02:53:16.693Z,12.80
2018-04-13T02:55:44.939Z,12.60
2018-04-13T02:58:12.436Z,12.60
2018-04-13T03:00:40.667Z,12.60
2018-04-13T03:03:08.142Z,12.60
2018-04-13T03:05:35.614Z,12.60
2018-04-13T03:08:03.167Z,12.60
2018-04-13T03:10:30.630Z,12.50
2018-04-13T03:12:58.124Z,12.40
2018-04-13T03:15:25.590Z,12.40
2018-04-13T03:17:53.067Z,12.50
2018-04-13T03:20:20.530Z,12.50
2018-04-13T03:22:48.001Z,12.40
2018-04-13T03:25:15.483Z,12.30
2018-04-13T03:27:42.973Z,12.20
2018-04-13T03:30:10.431Z,12.10
2018-04-13T03:32:37.909Z,12.00
2018-04-13T03:35:05.377Z,11.90
2018-04-13T03:37:32.845Z,11.80
2018-04-13T03:40:00.374Z,11.60
2018-04-13T03:42:28.579Z,11.40
2018-04-13T03:44:56.062Z,11.40
2018-04-13T03:47:23.538Z,11.40
2018-04-13T03:49:51.814Z,11.60
2018-04-13T03:52:20.050Z,11.70
2018-04-13T03:54:47.530Z,11.70
2018-04-13T03:57:15.001Z,11.80
2018-04-13T03:59:43.257Z,12.00
2018-04-13T04:02:10.756Z,11.90
2018-04-13T04:04:38.994Z,12.00
2018-04-13T04:07:06.511Z,12.00
2018-04-13T04:09:33.998Z,12.10
2018-04-13T04:12:01.466Z,12.20
2018-04-13T04:14:28.987Z,12.20
2018-04-13T04:16:56.467Z,12.20
2018-04-13T04:19:35.669Z,12.10
2018-04-13T04:22:15.145Z,12.10
2018-04-13T04:24:54.583Z,12.10
2018-04-13T04:27:22.062Z,12.10
2018-04-13T04:29:49.551Z,11.80
2018-04-13T04:32:17.783Z,11.40
2018-04-13T04:34:45.634Z,11.40
2018-04-13T04:37:13.106Z,11.30
2018-04-13T04:39:40.594Z,11.30
2018-04-13T04:42:08.845Z,11.50
2018-04-13T04:44:36.331Z,11.50
2018-04-13T04:47:03.806Z,11.60
2018-04-13T04:49:32.061Z,11.80
2018-04-13T04:51:59.550Z,11.80
2018-04-13T04:54:27.036Z,11.90
2018-04-13T04:56:54.616Z,11.90
2018-04-13T04:59:22.091Z,12.00
2018-04-13T05:01:49.564Z,12.00
2018-04-13T05:04:17.043Z,12.10
2018-04-13T05:06:45.318Z,12.30
2018-04-13T05:09:13.570Z,12.30
2018-04-13T05:11:41.042Z,12.30
2018-04-13T05:14:09.291Z,12.40
2018-04-13T05:16:36.782Z,12.40
2018-04-13T05:19:05.036Z,12.30
2018-04-13T05:21:32.519Z,12.30
2018-04-13T05:24:00.763Z,12.30
2018-04-13T05:26:28.241Z,12.30
2018-04-13T05:28:56.500Z,12.40
2018-04-13T05:31:24.040Z,12.30
2018-04-13T05:33:51.541Z,12.50
2018-04-13T05:36:19.809Z,12.60
2018-04-13T05:38:47.293Z,12.60
2018-04-13T05:41:14.778Z,12.70
2018-04-13T05:43:42.264Z,12.80
2018-04-13T05:46:09.807Z,12.90
2018-04-13T05:48:38.005Z,12.90
2018-04-13T05:51:05.495Z,12.80
2018-04-13T05:53:33.754Z,13.10
2018-04-13T05:56:01.236Z,13.00
2018-04-13T05:58:29.471Z,13.30
2018-04-13T06:00:56.962Z,13.30
2018-04-13T06:03:25.210Z,13.40
2018-04-13T06:05:52.715Z,13.40
2018-04-13T06:08:20.192Z,13.50
2018-04-13T06:10:47.686Z,13.50
2018-04-13T06:13:15.160Z,13.50
2018-04-13T06:15:42.646Z,13.50
2018-04-13T06:18:10.883Z,13.70
2018-04-13T06:20:38.369Z,13.70
2018-04-13T06:23:06.619Z,14.00
2018-04-13T06:25:34.114Z,14.00
2018-04-13T06:28:02.356Z,14.20
2018-04-13T06:30:29.846Z,14.10
2018-04-13T06:32:58.126Z,14.20
2018-04-13T06:35:26.378Z,14.30
2018-04-13T06:37:53.855Z,14.30
2018-04-13T06:40:21.344Z,14.30
2018-04-13T06:42:48.814Z,14.40
2018-04-13T06:45:16.303Z,14.40
2018-04-13T06:47:43.778Z,14.40
2018-04-13T06:50:11.273Z,14.50
2018-04-13T06:52:38.762Z,14.50
2018-04-13T06:55:06.254Z,14.50
2018-04-13T06:57:33.741Z,14.50
2018-04-13T07:00:01.226Z,14.50
2018-04-13T07:02:28.722Z,14.50
2018-04-13T07:04:56.210Z,14.70
2018-04-13T07:07:24.451Z,14.70
2018-04-13T07:09:51.944Z,14.70
2018-04-13T07:12:20.178Z,14.70
2018-04-13T07:14:47.780Z,14.70
2018-04-13T07:17:16.018Z,14.90
2018-04-13T07:19:43.506Z,14.90
2018-04-13T07:22:11.742Z,14.90
2018-04-13T07:24:39.222Z,14.90
2018-04-13T07:27:06.723Z,15.10
2018-04-13T07:29:34.227Z,15.20
2018-04-13T07:32:01.712Z,15.20
2018-04-13T07:34:29.186Z,15.30
2018-04-13T07:36:57.425Z,15.30
2018-04-13T07:39:24.931Z,15.20
2018-04-13T07:41:53.840Z,15.40
2018-04-13T07:44:21.333Z,15.40
2018-04-13T07:46:48.875Z,15.50
2018-04-13T07:49:16.350Z,15.50
2018-04-13T07:51:44.055Z,15.70
2018-04-13T07:54:11.343Z,15.80
2018-04-13T07:56:38.847Z,15.80
2018-04-13T07:59:06.317Z,15.90
2018-04-13T08:01:34.579Z,15.90
2018-04-13T08:04:02.059Z,15.90
2018-04-13T08:06:30.310Z,16.10
2018-04-13T08:08:57.784Z,16.00
2018-04-13T08:11:25.268Z,16.10
2018-04-13T08:13:53.774Z,16.10
2018-04-13T08:16:21.257Z,16.10
2018-04-13T08:18:48.734Z,16.10
2018-04-13T08:21:16.217Z,16.20
2018-04-13T08:23:44.450Z,16.30
2018-04-13T08:26:11.946Z,16.30
2018-04-13T08:28:40.192Z,16.30
2018-04-13T08:31:08.442Z,16.40
2018-04-13T08:33:35.926Z,16.30
2018-04-13T08:36:03.411Z,16.40
2018-04-13T08:38:30.915Z,16.50
2018-04-13T08:40:58.402Z,16.60
2018-04-13T08:43:25.930Z,16.60
2018-04-13T08:45:53.401Z,16.60
2018-04-13T08:48:20.874Z,16.60
2018-04-13T08:50:48.365Z,16.60
2018-04-13T08:53:15.882Z,16.40
2018-04-13T08:55:43.401Z,16.40
2018-04-13T08:58:10.865Z,16.60
2018-04-13T09:00:39.119Z,16.60
2018-04-13T09:03:07.369Z,16.70
2018-04-13T09:05:34.858Z,16.70
2018-04-13T09:08:02.358Z,16.70
2018-04-13T09:10:29.863Z,16.80
2018-04-13T09:16:08.964Z,16.90
2018-04-13T09:18:36.439Z,17.00
2018-04-13T09:21:03.926Z,17.00
2018-04-13T09:23:31.398Z,17.00
2018-04-13T09:25:58.877Z,17.00
2018-04-13T09:28:27.126Z,17.00
2018-04-13T09:30:54.610Z,17.00
2018-04-13T09:33:22.867Z,17.10
2018-04-13T09:35:50.366Z,17.10
2018-04-13T09:38:17.826Z,16.90
2018-04-13T09:40:45.314Z,17.00
2018-04-13T09:43:12.798Z,16.90
2018-04-13T09:45:40.280Z,16.70
2018-04-13T09:48:08.525Z,16.80
2018-04-13T09:50:36.046Z,16.80
2018-04-13T09:53:04.257Z,16.70
2018-04-13T09:55:31.727Z,16.70
2018-04-13T09:57:59.227Z,16.80
2018-04-13T10:00:30.541Z,16.90
2018-04-13T10:03:03.015Z,16.90
2018-04-13T10:05:30.479Z,16.90
2018-04-13T10:07:57.958Z,17.00
2018-04-13T10:10:26.195Z,17.00
2018-04-13T10:12:53.699Z,17.00
2018-04-13T10:15:21.173Z,17.10
2018-04-13T10:17:48.676Z,17.00
2018-04-13T10:20:16.149Z,17.00
2018-04-13T10:22:43.633Z,17.00
2018-04-13T10:25:11.117Z,17.00
2018-04-13T10:27:38.598Z,17.00
2018-04-13T10:30:06.082Z,17.00
2018-04-13T10:32:33.575Z,17.10
2018-04-13T10:35:01.055Z,17.00
2018-04-13T10:37:28.564Z,17.00
2018-04-13T10:39:58.828Z,17.00
2018-04-13T10:42:26.521Z,16.90
2018-04-13T10:44:53.994Z,16.80
2018-04-13T10:47:21.486Z,16.80
2018-04-13T10:49:49.725Z,16.90
2018-04-13T10:52:17.202Z,16.80
2018-04-13T10:54:44.705Z,16.80
2018-04-13T10:57:12.180Z,16.90
2018-04-13T10:59:39.654Z,16.90
2018-04-13T11:02:07.132Z,16.90
2018-04-13T11:04:34.618Z,16.90
2018-04-13T11:07:02.097Z,16.90
2018-04-13T11:09:29.586Z,17.00
2018-04-13T11:11:57.057Z,17.00
2018-04-13T11:14:24.548Z,16.80
2018-04-13T11:16:52.809Z,16.80
2018-04-13T11:19:20.282Z,16.80
2018-04-13T11:21:48.524Z,16.80
2018-04-13T11:24:16.010Z,16.80
2018-04-13T11:26:44.241Z,16.70
2018-04-13T11:29:11.730Z,16.70
2018-04-13T11:31:39.210Z,16.80
2018-04-13T11:34:06.691Z,16.80
2018-04-13T11:36:34.167Z,16.90
2018-04-13T11:39:01.658Z,17.00
2018-04-13T11:41:29.148Z,17.10
2018-04-13T11:43:57.422Z,17.20
2018-04-13T11:46:25.670Z,17.40
2018-04-13T11:48:53.162Z,17.40
2018-04-13T11:51:21.409Z,17.40
2018-04-13T11:53:48.890Z,17.40
2018-04-13T11:56:17.143Z,17.50
2018-04-13T11:58:44.697Z,17.40
2018-04-13T12:01:12.178Z,17.50
2018-04-13T12:03:40.430Z,17.60
2018-04-13T12:06:07.959Z,17.60
2018-04-13T12:08:35.821Z,17.70
2018-04-13T12:11:03.378Z,17.70
2018-04-13T12:13:30.959Z,17.70
2018-04-13T12:15:58.544Z,17.70
2018-04-13T12:18:26.022Z,17.80
2018-04-13T12:20:53.510Z,17.70
2018-04-13T12:23:20.996Z,17.70
2018-04-13T12:25:48.519Z,17.70
2018-04-13T12:28:16.006Z,17.70
2018-04-13T12:30:43.879Z,17.80
2018-04-13T12:33:11.357Z,17.80
2018-04-13T12:35:38.857Z,17.80
2018-04-13T12:38:07.097Z,17.60
2018-04-13T12:40:34.627Z,17.60
2018-04-13T12:43:02.119Z,17.70
2018-04-13T12:45:29.599Z,17.80
2018-04-13T12:47:57.077Z,17.80
2018-04-13T12:50:25.338Z,18.00
2018-04-13T12:52:52.814Z,18.00
2018-04-13T12:55:21.109Z,18.20
2018-04-13T12:57:49.860Z,18.20
2018-04-13T13:00:18.209Z,18.20
2018-04-13T13:02:45.686Z,18.20
2018-04-13T13:05:13.171Z,18.40
2018-04-13T13:07:41.491Z,18.40
2018-04-13T13:10:08.987Z,18.40
2018-04-13T13:12:36.463Z,18.30
2018-04-13T13:15:04.791Z,18.40
2018-04-13T13:17:32.268Z,18.40
2018-04-13T13:19:59.746Z,18.40
2018-04-13T13:22:27.242Z,18.50
2018-04-13T13:25:01.884Z,18.50
2018-04-13T13:27:30.424Z,18.60
2018-04-13T13:29:57.908Z,18.70
2018-04-13T13:32:25.389Z,18.70
2018-04-13T13:34:52.871Z,18.60
2018-04-13T13:37:20.464Z,18.70
2018-04-13T13:39:48.823Z,18.70
2018-04-13T13:42:16.314Z,18.70
2018-04-13T13:44:45.340Z,18.80
2018-04-13T13:47:12.859Z,18.80
2018-04-13T13:49:42.580Z,19.10
2018-04-13T13:52:12.337Z,19.10
2018-04-13T13:54:39.885Z,19.10
2018-04-13T13:57:07.514Z,19.00
2018-04-13T13:59:35.791Z,18.90
2018-04-13T14:02:03.358Z,18.90
2018-04-13T14:04:30.880Z,19.00
2018-04-13T14:06:59.257Z,19.00
2018-04-13T14:09:26.791Z,19.00
2018-04-13T14:11:55.098Z,19.20
2018-04-13T14:14:22.600Z,19.20
2018-04-13T14:16:50.110Z,19.20
2018-04-13T14:19:17.583Z,19.20
2018-04-13T14:21:47.456Z,18.70
2018-04-13T14:24:14.996Z,18.70
2018-04-13T14:26:46.465Z,18.50
2018-04-13T14:29:14.075Z,18.20
2018-04-13T14:31:42.405Z,17.80
2018-04-13T14:34:10.990Z,17.70
2018-04-13T14:36:39.689Z,17.80
2018-04-13T14:39:07.279Z,17.80
2018-04-13T14:41:36.107Z,17.80
2018-04-13T14:44:04.249Z,17.90
2018-04-13T14:46:31.745Z,18.00
2018-04-13T14:48:59.291Z,18.00
2018-04-13T14:51:27.644Z,17.70
2018-04-13T14:53:55.094Z,17.50
2018-04-13T14:56:22.606Z,17.50
2018-04-13T14:58:50.134Z,17.40
2018-04-13T15:01:17.616Z,17.40
2018-04-13T15:03:45.868Z,17.50
2018-04-13T15:06:13.383Z,17.50
2018-04-13T15:08:40.981Z,17.40
2018-04-13T15:11:08.534Z,17.30
2018-04-13T15:13:36.104Z,17.30
2018-04-13T15:16:04.757Z,17.20
2018-04-13T15:18:32.324Z,17.20
2018-04-13T15:20:59.835Z,17.30
2018-04-13T15:23:28.097Z,17.30
2018-04-13T15:25:55.575Z,17.30
2018-04-13T15:28:23.825Z,17.10
2018-04-13T15:30:51.302Z,17.10
2018-04-13T15:33:18.795Z,17.10
2018-04-13T15:35:46.266Z,17.20
2018-04-13T15:38:14.013Z,17.10
2018-04-13T15:40:41.611Z,17.10
2018-04-13T15:43:09.234Z,17.10
2018-04-13T15:45:37.773Z,17.10
2018-04-13T15:48:05.438Z,17.10
2018-04-13T15:50:32.910Z,17.10
2018-04-13T15:53:01.195Z,17.00
2018-04-13T15:55:29.622Z,17.00
2018-04-13T15:57:58.044Z,17.00
2018-04-13T16:00:26.395Z,17.00
2018-04-13T16:02:53.906Z,16.90
2018-04-13T16:05:21.408Z,17.00
2018-04-13T16:07:49.726Z,17.00
2018-04-13T16:10:18.188Z,17.00
2018-04-13T16:12:45.682Z,17.00
2018-04-13T16:15:14.193Z,16.90
2018-04-13T16:17:41.737Z,16.90
2018-04-13T16:20:09.224Z,16.90
2018-04-13T16:22:36.741Z,17.00
2018-04-13T16:25:04.972Z,17.00
2018-04-13T16:27:32.457Z,17.00
2018-04-13T16:29:59.967Z,16.90
2018-04-13T16:32:27.447Z,17.00
2018-04-13T16:34:54.957Z,16.80
2018-04-13T16:37:22.455Z,16.80
2018-04-13T16:39:49.922Z,16.70
2018-04-13T16:42:17.443Z,16.60
2018-04-13T16:44:44.920Z,16.50
2018-04-13T16:47:12.427Z,16.60
2018-04-13T16:49:39.972Z,16.50
2018-04-13T16:52:08.295Z,16.30
2018-04-13T16:54:39.725Z,16.30
2018-04-13T16:57:08.854Z,16.30
2018-04-13T16:59:36.565Z,16.10
2018-04-13T17:02:04.169Z,16.00
2018-04-13T17:04:32.364Z,15.90
2018-04-13T17:07:00.722Z,15.90
2018-04-13T17:09:28.219Z,15.90
2018-04-13T17:11:55.701Z,15.90
2018-04-13T17:14:23.931Z,15.80
2018-04-13T17:16:51.426Z,15.80
2018-04-13T17:19:18.941Z,15.80
2018-04-13T17:21:47.760Z,15.90
2018-04-13T17:24:15.377Z,15.90
2018-04-13T17:26:44.916Z,15.60
2018-04-13T17:29:13.807Z,15.30
2018-04-13T17:31:41.351Z,15.30
2018-04-13T17:34:08.844Z,15.20
2018-04-13T17:36:36.346Z,15.20
2018-04-13T17:39:04.600Z,15.00
2018-04-13T17:41:32.094Z,15.00
2018-04-13T17:43:59.586Z,14.80
2018-04-13T17:46:27.066Z,14.80
2018-04-13T17:48:55.338Z,14.80
2018-04-13T17:51:22.823Z,14.70
2018-04-13T17:53:51.153Z,14.90
2018-04-13T17:56:18.649Z,14.90
2018-04-13T17:58:46.134Z,15.00
2018-04-13T18:01:14.374Z,14.90
2018-04-13T18:03:41.862Z,14.90
2018-04-13T18:06:10.119Z,14.80
2018-04-13T18:08:38.399Z,14.70
2018-04-13T18:11:06.226Z,14.60
2018-04-13T18:13:33.749Z,14.60
2018-04-13T18:16:01.995Z,14.40
2018-04-13T18:18:29.486Z,14.30
2018-04-13T18:20:57.771Z,14.20
2018-04-13T18:23:26.045Z,14.20
2018-04-13T18:25:54.294Z,14.10
2018-04-13T18:28:21.803Z,14.10
2018-04-13T18:30:49.347Z,14.10
2018-04-13T18:33:17.588Z,13.90
2018-04-13T18:35:45.132Z,13.90
2018-04-13T18:38:12.625Z,13.90
2018-04-13T18:40:40.126Z,13.80
2018-04-13T18:43:07.684Z,13.70
2018-04-13T18:45:35.161Z,13.60
2018-04-13T18:48:02.660Z,13.70
2018-04-13T18:50:30.146Z,13.70
2018-04-13T18:52:57.623Z,13.70
2018-04-13T18:55:25.121Z,13.70
2018-04-13T18:57:55.495Z,13.50
2018-04-13T19:00:23.134Z,13.40
2018-04-13T19:02:52.758Z,13.50
2018-04-13T19:05:21.011Z,13.40
2018-04-13T19:07:49.288Z,13.40
2018-04-13T19:10:16.851Z,13.40
2018-04-13T19:12:45.137Z,13.30
2018-04-13T19:15:13.395Z,13.30
2018-04-13T19:17:40.893Z,13.30
2018-04-13T19:20:08.688Z,13.20
2018-04-13T19:22:36.305Z,13.20
2018-04-13T19:25:04.570Z,13.20
2018-04-13T19:27:32.834Z,13.10
2018-04-13T19:30:01.186Z,13.10
2018-04-13T19:32:29.446Z,13.00
2018-04-13T19:34:56.954Z,13.00
2018-04-13T19:37:24.441Z,12.90
2018-04-13T19:39:51.932Z,12.80
2018-04-13T19:42:19.429Z,12.80
2018-04-13T19:44:46.930Z,12.60
2018-04-13T19:47:14.444Z,12.60
2018-04-13T19:49:41.935Z,12.60
2018-04-13T19:52:09.406Z,12.60
2018-04-13T19:54:36.907Z,12.80
2018-04-13T19:57:04.436Z,12.80
2018-04-13T19:59:31.934Z,12.80
2018-04-13T20:01:59.453Z,12.70
2018-04-13T20:04:26.964Z,12.70
2018-04-13T20:06:54.454Z,12.60
2018-04-13T20:09:21.942Z,12.50
2018-04-13T20:11:49.435Z,12.50
2018-04-13T20:14:24.670Z,12.60
2018-04-13T20:16:52.165Z,12.50
2018-04-13T20:19:20.154Z,12.40
2018-04-13T20:21:47.623Z,12.50
2018-04-13T20:24:15.162Z,12.40
2018-04-13T20:26:42.638Z,12.40
2018-04-13T20:29:10.125Z,12.30
2018-04-13T20:31:37.614Z,12.40
2018-04-13T20:34:05.902Z,12.40
2018-04-13T20:36:34.144Z,12.40
2018-04-13T20:39:01.625Z,12.40
2018-04-13T20:41:29.951Z,12.30
2018-04-13T20:43:57.466Z,12.20
2018-04-13T20:46:25.739Z,12.10
2018-04-13T20:48:54.201Z,12.10
2018-04-13T20:51:21.677Z,12.10
2018-04-13T20:53:49.941Z,12.30
2018-04-13T20:56:17.407Z,12.20
2018-04-13T20:58:44.908Z,12.20
2018-04-13T21:01:12.392Z,12.20
2018-04-13T21:03:40.911Z,12.10
2018-04-13T21:06:09.163Z,12.10
2018-04-13T21:08:36.687Z,12.10
2018-04-13T21:11:04.171Z,12.20
2018-04-13T21:13:31.641Z,12.10
2018-04-13T21:15:59.125Z,12.10
2018-04-13T21:18:26.607Z,12.20
2018-04-13T21:20:54.101Z,12.10
2018-04-13T21:23:21.625Z,12.10
2018-04-13T21:25:49.130Z,12.00
2018-04-13T21:28:16.602Z,12.00
2018-04-13T21:30:44.088Z,12.10
2018-04-13T21:33:12.367Z,12.00
2018-04-13T21:35:40.622Z,11.90
2018-04-13T21:38:08.162Z,11.80
2018-04-13T21:40:35.656Z,12.00
2018-04-13T21:43:03.893Z,12.00
2018-04-13T21:45:31.374Z,12.00
2018-04-13T21:47:58.854Z,12.00
2018-04-13T21:50:27.107Z,11.90
2018-04-13T21:52:54.634Z,11.90
2018-04-13T21:55:22.114Z,11.90
2018-04-13T21:57:49.670Z,12.00
2018-04-13T22:00:17.158Z,12.00
2018-04-13T22:02:44.690Z,12.10
2018-04-13T22:05:12.186Z,12.10
2018-04-13T22:07:40.506Z,12.10
2018-04-13T22:10:08.014Z,12.10
2018-04-13T22:12:47.475Z,12.20
2018-04-13T22:15:15.741Z,12.10
2018-04-13T22:17:43.989Z,12.20
2018-04-13T22:20:11.489Z,12.20
2018-04-13T22:22:39.793Z,12.30
2018-04-13T22:25:07.310Z,12.20
2018-04-13T22:27:34.966Z,12.30
2018-04-13T22:30:03.229Z,12.30
2018-04-13T22:32:30.861Z,12.30
2018-04-13T22:34:59.175Z,12.30
2018-04-13T22:37:26.658Z,12.30
2018-04-13T22:39:54.901Z,12.40
2018-04-13T22:42:22.411Z,12.40
2018-04-13T22:44:50.679Z,12.30
2018-04-13T22:47:18.176Z,12.30
2018-04-13T22:49:45.736Z,12.40
2018-04-13T22:52:13.980Z,12.40
2018-04-13T22:54:41.525Z,12.40
2018-04-13T22:57:09.786Z,12.50
2018-04-13T22:59:38.040Z,12.50
2018-04-13T23:02:06.310Z,12.50
2018-04-13T23:04:33.873Z,12.50
2018-04-13T23:07:02.129Z,12.50
2018-04-13T23:09:29.713Z,12.50
2018-04-13T23:11:57.264Z,12.50
2018-04-13T23:14:25.625Z,12.40
2018-04-13T23:16:53.136Z,12.40
2018-04-13T23:19:20.628Z,12.30
2018-04-13T23:21:48.141Z,12.30
2018-04-13T23:24:15.621Z,12.40
2018-04-13T23:26:43.097Z,12.50
2018-04-13T23:29:10.581Z,12.50
2018-04-13T23:31:38.062Z,12.40
2018-04-13T23:34:05.565Z,12.50
2018-04-13T23:36:33.817Z,12.50
2018-04-13T23:39:01.290Z,12.50
2018-04-13T23:41:29.558Z,12.50
2018-04-13T23:43:57.031Z,12.50
2018-04-13T23:46:25.281Z,12.60
2018-04-13T23:48:52.762Z,12.60
2018-04-13T23:51:21.038Z,12.50
2018-04-13T23:53:49.318Z,12.50
2018-04-13T23:56:17.565Z,12.40
2018-04-13T23:58:45.049Z,12.40
